Terminal Aerodrome Forecast
Issued by NWS Wilmington, OH

Current Version | Previous Version | Text Only | Print | Product List | Glossary Off
Versions: 1 2 3 4 5 6 7 8 9 10 11 12 13 14 15 16 17 18

000
FTUS41 KILN 221500 AAA
TAFILN
TAF AMD
KILN 221558Z 2216/2312 27020G30KT P6SM BKN040
     FM230000 27012KT P6SM SCT050
     FM230300 25008KT P6SM SCT050=

USA.gov is the U.S. government's official web portal to all federal, state and local government web resources and services.